Weather observations for the past three days for
Topeka, Philip Billard Municipal Airport
Imperial (Metric)
Date Time (cdt) Wind (mph) Vis. (mi.) Weather Sky Cond. Temperature (ºF) Relative Humidity Wind Chill (°F) Heat Index (°F) Pressure Precipitation (in)
Air Dwpt 6 hour altimeter (in) sea level (mb) 1 hr 3 hr 6 hr
Max. Min.
05 04:53 Calm 10.00 Fair CLR 73 70 90% 29.91 1011.6
05 03:53 Calm 10.00 Fair CLR 72 69.1 91% 29.92 1012.0
05 02:53 Calm 10.00 Fair CLR 73.9 70 88% 29.92 1012.0
05 01:53 Calm 10.00 Fair CLR 75.9 71.1 85% 76 29.92 1012.0
05 00:53 Calm 10.00 Fair CLR 77 70 95 75.9 79% 79 29.92 1012.2
04 23:53 Calm 10.00 Fair CLR 77 71.1 82% 79 29.92 1012.0
04 22:53 Calm 10.00 Fair CLR 78.1 71.1 79% 80 29.92 1011.9
04 21:53 E 3 10.00 Fair CLR 80.1 70 71% 83 29.9 1011.5
04 20:53 Calm 10.00 Fair CLR 82 72 72% 87 29.89 1011.0
04 19:53 Calm 10.00 Fair CLR 91 66.9 45% 94 29.87 1010.3
04 18:53 S 7 10.00 Fair CLR 95 66.9 99 93 40% 99 29.88 1010.6
04 17:53 SE 14 10.00 Fair CLR 97 66 36% 101 29.88 1010.7
04 16:53 S 8 10.00 Fair CLR 98.1 66.9 36% 103 29.88 1010.8
04 15:53 S 10 10.00 Fair CLR 98.1 68 38% 103 29.89 1011.0
04 14:53 S 10 G 18 10.00 Fair CLR 97 68 39% 102 29.9 1011.4
04 13:53 S 10 G 20 10.00 Fair CLR 95 69.1 43% 101 29.92 1011.9
04 12:53 S 17 G 25 10.00 Fair CLR 93.9 70 93.9 72 46% 100 29.93 1012.3
04 11:53 S 13 10.00 Fair CLR 91 70 50% 97 29.94 1012.8
04 10:53 SW 13 10.00 Fair CLR 89.1 69.1 52% 94 29.94 1012.8
04 09:53 SW 10 10.00 Fair CLR 84.9 70 61% 89 29.95 1013.1
04 08:53 S 5 10.00 Fair CLR 81 70 69% 84 29.95 1013.0
04 07:53 SE 3 10.00 Fair CLR 75.9 70 82% 77 29.94 1012.9
04 06:53 SE 3 10.00 Fair CLR 73 69.1 80.1 73 87% 29.93 1012.2
04 05:53 SE 6 10.00 Fair CLR 73 68 84% 29.91 1011.8
04 04:53 Calm 10.00 Fair CLR 73.9 69.1 85% 29.9 1011.4
04 03:53 Calm 10.00 Fair CLR 73.9 69.1 85% 29.88 1010.8
04 02:53 Calm 10.00 Fair CLR 75 69.1 82% 75 29.88 1010.8
04 01:53 Calm 10.00 Fair CLR 77 68 74% 79 29.89 1011.0
04 00:53 Calm 10.00 Fair CLR 80.1 68 95 80.1 67% 83 29.89 1011.0
03 23:53 Calm 10.00 Fair CLR 82.9 66.9 59% 86 29.88 1010.7
03 22:53 SE 5 10.00 Fair CLR 82 66.9 60% 85 29.87 1010.5
03 21:53 SE 7 10.00 Fair CLR 87.1 66 50% 89 29.86 1010.0
03 20:53 SE 8 10.00 Fair CLR 88 66.9 50% 91 29.84 1009.5
03 19:53 SE 8 10.00 Fair CLR 90 66.9 47% 93 29.82 1008.7
03 18:53 SE 9 10.00 Fair CLR 95 66.9 99 93.9 40% 99 29.82 1008.7
03 17:53 S 14 G 23 10.00 Fair CLR 97 64.9 35% 100 29.82 1008.5
03 16:53 S 14 10.00 Fair CLR 99 66.9 35% 104 29.82 1008.6
03 15:53 S 14 G 25 10.00 Fair CLR 97 66 36% 101 29.84 1009.2
03 14:53 S 12 G 21 10.00 Fair CLR 97 68 39% 102 29.85 1009.7
03 13:53 S 14 G 22 10.00 Fair CLR 96.1 69.1 41% 102 29.88 1010.4
03 12:53 S 12 G 22 10.00 Fair CLR 93.9 69.1 93.9 78.1 44% 99 29.9 1011.1
03 11:53 S 14 G 24 10.00 Fair CLR 91 68 47% 95 29.91 1011.6
03 10:53 SW 15 G 23 10.00 Fair CLR 89.1 68 50% 93 29.92 1011.9
03 09:53 SW 13 G 23 10.00 Fair CLR 87.1 69.1 55% 91 29.92 1012.2
03 08:53 S 9 G 17 10.00 Fair CLR 82.9 68 61% 86 29.92 1012.0
03 07:53 S 7 10.00 Fair CLR 80.1 66.9 64% 82 29.92 1012.0
03 06:53 S 6 10.00 Fair CLR 78.1 66.9 82.9 73 69% 80 29.91 1011.6
03 05:53 S 7 10.00 Fair CLR 78.1 66 67% 80 29.9 1011.3
03 04:53 S 5 10.00 Fair CLR 77 66 69% 79 29.89 1011.1
03 03:53 Calm 10.00 Fair CLR 75 66.9 76% 76 29.9 1011.1
03 02:53 S 3 10.00 Fair CLR 79 66 65% 81 29.88 1010.7
03 01:53 S 3 10.00 Fair CLR 80.1 64.9 60% 82 29.89 1010.9
03 00:53 S 8 10.00 Fair CLR 82.9 64.9 97 82.9 55% 85 29.89 1010.9
02 23:53 S 7 10.00 Fair CLR 84.9 64 50% 86 29.89 1010.8
02 22:53 S 9 10.00 Fair CLR 87.1 64 46% 88 29.89 1011.0
02 21:53 S 9 10.00 Fair CLR 87.1 64.9 48% 89 29.89 1010.9
02 20:53 SE 6 10.00 Fair CLR 86 66.9 53% 89 29.87 1010.4
02 19:53 SE 7 10.00 Fair CLR 91 66 44% 94 29.86 1009.9
02 18:53 S 9 10.00 Fair CLR 97 64.9 100.9 96.1 35% 100 29.85 1009.8
02 17:53 S 8 10.00 Fair CLR 99 64 32% 102 29.86 1010.0
02 16:53 S 13 10.00 Fair CLR 100 64 31% 103 29.87 1010.2
02 15:53 S 14 10.00 A Few Clouds FEW090 100 63 30% 102 29.88 1010.7
02 14:53 S 13 G 24 10.00 Fair CLR 100 64.9 32% 103 29.91 1011.5
02 13:53 SW 12 G 22 10.00 Fair CLR 99 69.1 38% 105 29.93 1012.2
02 12:53 S 14 G 20 10.00 Fair CLR 96.1 69.1 97 72 41% 102 29.95 1012.9
02 11:53 SW 9 10.00 Fair CLR 96.1 69.1 41% 102 29.96 1013.4
02 10:53 SW 13 10.00 Fair CLR 91.9 68 46% 96 29.97 1013.7
02 09:53 SW 12 G 16 10.00 Fair CLR 87.1 66.9 51% 90 29.97 1013.8
02 08:53 S 7 10.00 Fair CLR 82 66 58% 84 29.98 1014.0
02 07:53 S 6 10.00 Fair CLR 77 64.9 66% 79 29.97 1013.7
02 06:53 Calm 10.00 Fair CLR 73 64.9 82 72 76% 29.96 1013.4
02 05:53 Calm 10.00 Fair CLR 75 64 69% 77 29.95 1013.1
Date Time (cdt) Wind (mph) Vis. (mi.) Weather Sky Cond. Air Dwpt Max. Min. Relative Humidity Wind Chill (°F) Heat Index (°F) altimeter (in) sea level (mb) 1 hr 3 hr 6 hr
6 hour
Temperature (ºF) Pressure Precipitation (in)